createdAt,value
2018-03-18T08:21:01.123Z,6.83
2018-03-18T08:23:29.506Z,7.20
2018-03-18T08:25:57.872Z,7.83
2018-03-18T08:28:32.323Z,7.67
2018-03-18T08:31:00.673Z,5.90
2018-03-18T08:33:30.483Z,8.43
2018-03-18T08:35:58.858Z,9.30
2018-03-18T08:38:27.346Z,9.97
2018-03-18T11:10:43.679Z,5.20
2018-03-18T11:13:34.641Z,5.70
2018-03-18T11:16:03.052Z,5.40
2018-03-18T11:18:31.629Z,5.37
2018-03-18T11:21:11.964Z,5.17
2018-03-18T11:23:40.133Z,6.13
2018-03-18T11:26:08.509Z,5.83
2018-03-18T11:28:36.880Z,5.50
2018-03-18T11:31:05.437Z,5.37
2018-03-18T11:33:33.777Z,4.90
2018-03-18T11:36:02.128Z,4.57
2018-03-18T11:38:30.811Z,4.50
2018-03-18T11:40:59.142Z,5.10
2018-03-18T11:43:27.543Z,4.50
2018-03-18T11:45:55.862Z,2.77
2018-03-18T11:48:24.355Z,4.23
2018-03-18T11:50:52.704Z,3.50
2018-03-18T11:53:21.041Z,3.33
2018-03-18T11:55:49.424Z,2.97
2018-03-18T11:58:17.953Z,3.63
2018-03-18T12:00:46.342Z,3.30
2018-03-18T12:03:14.710Z,2.93
2018-03-18T12:05:43.051Z,3.20
2018-03-18T12:08:33.290Z,3.53
2018-03-18T12:11:01.647Z,4.17
2018-03-18T12:13:29.983Z,4.50
2018-03-18T12:15:58.368Z,4.90
2018-03-18T12:18:31.286Z,5.63
2018-03-18T12:21:00.429Z,5.40
2018-03-18T12:23:30.368Z,5.80
2018-03-18T12:25:58.691Z,6.10
2018-03-18T12:28:27.121Z,6.73
2018-03-18T12:30:55.530Z,8.10
2018-03-18T12:33:23.882Z,8.00
2018-03-18T12:35:52.220Z,9.27
2018-03-18T12:38:20.542Z,8.67
2018-03-18T12:40:52.097Z,8.20
2018-03-18T12:43:33.321Z,10.57
2018-03-18T12:46:01.683Z,12.40
2018-03-18T12:48:30.119Z,18.67
2018-03-18T12:50:58.463Z,17.93
2018-03-18T12:53:26.887Z,8.30
2018-03-18T12:55:55.210Z,7.40
2018-03-18T12:58:23.542Z,5.97
2018-03-18T13:00:51.885Z,6.30
2018-03-18T13:03:20.209Z,6.30
2018-03-18T13:05:48.606Z,8.20
2018-03-18T13:08:17.439Z,9.13
2018-03-18T13:10:45.779Z,6.40
2018-03-18T13:13:14.099Z,6.37
2018-03-18T13:15:42.905Z,7.70
2018-03-18T13:18:11.241Z,6.53
